Time;durP1;ratioP1;P1;durP2;ratioP2;P2;SDS_P1;SDS_P2;PMS_P1;PMS_P2;Temp;Humidity;BMP_temperature;BMP_pressure;BME280_temperature;BME280_humidity;BME280_pressure;Samples;Min_cycle;Max_cycle;Signal;HPM_P1;HPM_P2
2023/05/23 00:03:21;;;;;;;6.75;5.32;;;10.10;99.90;;;;;;20911860;28;20479;-46
2023/05/23 00:13:23;;;;;;;11.30;5.75;;;10.10;99.90;;;;;;20916921;28;20037;-47
2023/05/23 00:23:24;;;;;;;7.47;5.28;;;9.90;99.90;;;;;;20912097;28;20025;-58
2023/05/23 00:33:26;;;;;;;6.70;5.03;;;9.80;99.90;;;;;;20908221;28;20102;-55
2023/05/23 00:43:28;;;;;;;6.47;5.50;;;9.70;99.90;;;;;;20917508;28;20047;-57
2023/05/23 00:53:30;;;;;;;7.50;5.70;;;9.80;99.90;;;;;;20912371;28;20049;-57
2023/05/23 01:03:31;;;;;;;7.25;5.57;;;9.60;99.90;;;;;;20915370;28;20025;-46
2023/05/23 01:13:50;;;;;;;8.30;5.60;;;9.60;99.90;;;;;;20911389;28;20044;-58
2023/05/23 01:24:38;;;;;;;6.10;5.20;;;9.50;99.90;;;;;;20910124;28;20040;-48
2023/05/23 01:34:41;;;;;;;8.02;5.28;;;9.80;99.90;;;;;;20900983;28;20099;-57
2023/05/23 01:44:45;;;;;;;9.48;5.78;;;9.80;99.90;;;;;;20912549;28;20095;-58
2023/05/23 01:54:47;;;;;;;8.05;6.00;;;9.90;99.90;;;;;;20908420;28;20037;-48
2023/05/23 02:04:50;;;;;;;8.18;6.35;;;9.80;99.90;;;;;;20900764;28;20474;-49
2023/05/23 02:14:54;;;;;;;9.27;6.30;;;9.70;99.90;;;;;;20911110;28;20106;-47
2023/05/23 02:24:55;;;;;;;10.90;6.68;;;9.30;99.90;;;;;;20904033;28;20036;-52
2023/05/23 02:34:57;;;;;;;9.18;6.63;;;9.30;99.90;;;;;;20902671;28;20091;-57
2023/05/23 02:44:59;;;;;;;8.77;6.10;;;9.50;99.90;;;;;;20921424;28;20029;-48
2023/05/23 02:55:00;;;;;;;7.10;5.60;;;9.40;99.90;;;;;;20920917;28;20056;-58
2023/05/23 03:05:05;;;;;;;9.68;5.88;;;9.60;99.90;;;;;;20920271;28;20045;-48
2023/05/23 03:15:07;;;;;;;9.35;6.60;;;9.60;99.90;;;;;;20918852;28;20134;-58
2023/05/23 03:25:11;;;;;;;11.07;6.70;;;9.40;99.90;;;;;;20915518;28;20037;-46
2023/05/23 03:35:13;;;;;;;9.27;7.55;;;9.30;99.90;;;;;;20918721;28;20048;-58
2023/05/23 03:45:14;;;;;;;10.02;7.18;;;9.20;99.90;;;;;;20918177;28;20482;-47
2023/05/23 03:55:20;;;;;;;7.60;6.25;;;9.20;99.90;;;;;;20918067;28;20133;-47
2023/05/23 04:05:22;;;;;;;13.98;7.75;;;9.30;99.90;;;;;;20915677;28;20032;-58
2023/05/23 04:15:24;;;;;;;11.20;7.15;;;9.30;99.90;;;;;;20910243;28;20391;-47
2023/05/23 04:25:33;;;;;;;10.50;7.78;;;9.50;99.90;;;;;;20905043;28;20025;-47
2023/05/23 04:36:01;;;;;;;9.10;7.13;;;9.50;99.90;;;;;;20916016;28;20076;-46
2023/05/23 04:46:03;;;;;;;12.15;6.90;;;9.60;99.90;;;;;;20923927;28;20158;-48
2023/05/23 04:56:19;;;;;;;11.70;7.40;;;9.90;99.90;;;;;;20915981;28;20036;-48
2023/05/23 05:06:22;;;;;;;10.52;7.38;;;9.90;99.90;;;;;;20905563;28;20059;-58
2023/05/23 05:16:26;;;;;;;9.85;6.90;;;10.10;99.90;;;;;;20909063;28;20029;-48
2023/05/23 05:26:28;;;;;;;11.00;6.97;;;10.30;99.90;;;;;;20909146;28;20036;-58
2023/05/23 05:36:31;;;;;;;8.05;6.68;;;10.50;99.90;;;;;;20903603;28;20401;-58
2023/05/23 05:46:33;;;;;;;9.95;6.45;;;10.80;99.90;;;;;;20904356;28;20036;-50
2023/05/23 05:56:35;;;;;;;8.70;6.60;;;11.20;99.90;;;;;;20904084;28;20032;-46
2023/05/23 06:06:36;;;;;;;7.00;5.85;;;11.60;99.90;;;;;;20906177;28;20036;-58
2023/05/23 06:16:38;;;;;;;6.75;5.18;;;12.00;99.90;;;;;;20885939;28;20067;-59
2023/05/23 06:26:40;;;;;;;6.72;4.03;;;15.00;99.90;;;;;;20924135;28;20147;-48
2023/05/23 06:36:45;;;;;;;7.10;4.57;;;18.40;99.90;;;;;;20912431;28;20537;-47
2023/05/23 06:46:47;;;;;;;5.32;4.30;;;21.20;99.90;;;;;;20922085;28;20029;-59
2023/05/23 06:56:49;;;;;;;57.08;13.85;;;22.80;97.80;;;;;;20912274;28;20028;-48
2023/05/23 07:06:52;;;;;;;6.32;4.70;;;23.10;94.60;;;;;;20927941;28;20041;-59
2023/05/23 07:16:54;;;;;;;40.22;18.55;;;23.60;96.10;;;;;;20914527;28;20032;-59
2023/05/23 07:26:56;;;;;;;44.67;15.13;;;24.60;96.00;;;;;;20917964;28;20025;-59
2023/05/23 07:37:00;;;;;;;407.00;114.78;;;25.00;93.60;;;;;;20914087;28;20041;-56
2023/05/23 07:47:06;;;;;;;142.40;41.25;;;25.00;95.70;;;;;;20911808;28;20040;-59
2023/05/23 07:57:08;;;;;;;43.25;15.85;;;24.70;95.80;;;;;;20919452;28;20044;-59
2023/05/23 08:07:11;;;;;;;7.60;5.18;;;24.50;94.60;;;;;;20915740;28;20033;-47
2023/05/23 08:17:21;;;;;;;6.10;5.50;;;24.70;92.30;;;;;;20905503;28;20029;-59
2023/05/23 08:27:23;;;;;;;36.35;11.52;;;24.50;94.60;;;;;;20909244;28;20040;-59
2023/05/23 08:37:29;;;;;;;8.70;5.00;;;24.40;93.30;;;;;;20904198;28;20053;-49
2023/05/23 08:47:36;;;;;;;41.03;14.15;;;25.10;93.30;;;;;;20914675;28;20478;-60
2023/05/23 08:57:44;;;;;;;35.60;13.02;;;25.10;94.10;;;;;;20902925;28;20079;-60
2023/05/23 09:08:05;;;;;;;64.82;21.17;;;25.50;94.10;;;;;;20900191;28;20025;-60
2023/05/23 09:18:06;;;;;;;6.93;4.95;;;25.60;93.50;;;;;;20907123;28;20456;-60
2023/05/23 09:28:09;;;;;;;1106.60;332.58;;;26.00;92.60;;;;;;20897010;28;20067;-47
2023/05/23 09:38:13;;;;;;;7.70;5.05;;;26.10;92.60;;;;;;20904086;28;20110;-60
2023/05/23 09:48:15;;;;;;;7.07;4.85;;;25.80;91.90;;;;;;20904115;28;20033;-53
2023/05/23 09:58:19;;;;;;;6.32;4.68;;;25.80;91.60;;;;;;20921381;28;20047;-59
2023/05/23 10:08:25;;;;;;;7.22;5.63;;;25.70;90.70;;;;;;20917433;28;20074;-60
2023/05/23 10:18:33;;;;;;;;;;;25.90;92.70;;;;;;20917064;28;20037;-59
2023/05/23 10:28:35;;;;;;;;;;;25.80;91.80;;;;;;20916792;28;19962;-60
2023/05/23 10:39:01;;;;;;;6.63;5.57;;;25.70;92.10;;;;;;20922833;28;19974;-48
2023/05/23 10:49:07;;;;;;;7.57;6.13;;;25.80;93.00;;;;;;20917255;28;20032;-60
2023/05/23 10:59:20;;;;;;;7.40;6.07;;;26.40;90.60;;;;;;20921872;28;20029;-60
2023/05/23 11:09:22;;;;;;;8.85;6.93;;;26.50;92.00;;;;;;20914536;28;20047;-60
2023/05/23 11:19:29;;;;;;;7.10;5.47;;;26.00;91.00;;;;;;20922727;28;20037;-60
2023/05/23 11:29:31;;;;;;;7.97;4.60;;;25.70;91.50;;;;;;20916825;28;20040;-60
2023/05/23 11:39:33;;;;;;;5.25;4.55;;;26.10;91.50;;;;;;20917884;28;20041;-60
2023/05/23 11:49:37;;;;;;;5.93;5.15;;;26.80;90.70;;;;;;20909896;28;20399;-46
2023/05/23 11:59:39;;;;;;;8.93;5.40;;;26.50;89.50;;;;;;20910596;28;20079;-57
2023/05/23 12:09:45;;;;;;;9.60;5.50;;;24.30;90.70;;;;;;20909222;28;20025;-60
2023/05/23 12:19:47;;;;;;;8.00;5.13;;;22.20;91.60;;;;;;20909935;28;20448;-60
2023/05/23 12:30:02;;;;;;;9.40;5.80;;;21.00;93.30;;;;;;20921952;28;20025;-60
2023/05/23 12:40:13;;;;;;;8.10;5.93;;;20.90;93.30;;;;;;20909345;28;20103;-60
2023/05/23 12:50:15;;;;;;;12.07;7.15;;;21.10;94.60;;;;;;20904709;28;20067;-60
2023/05/23 13:00:18;;;;;;;9.32;6.65;;;22.30;93.90;;;;;;20919847;28;20028;-60
2023/05/23 13:10:19;;;;;;;6.45;5.85;;;24.10;92.50;;;;;;20910149;28;20056;-47
2023/05/23 13:20:21;;;;;;;7.40;5.15;;;25.40;93.00;;;;;;20903587;28;20040;-60
2023/05/23 13:30:23;;;;;;;12.63;10.90;;;26.50;86.00;;;;;;20906190;28;20029;-60
2023/05/23 13:40:25;;;;;;;20.02;14.75;;;25.60;90.40;;;;;;20905085;28;20057;-52
2023/05/23 13:50:28;;;;;;;19.65;13.38;;;24.30;91.80;;;;;;20901498;28;20067;-53
2023/05/23 14:00:29;;;;;;;16.55;12.57;;;22.80;92.60;;;;;;20913154;28;20370;-59
2023/05/23 14:10:34;;;;;;;14.13;12.73;;;22.20;94.10;;;;;;20909102;28;20041;-53
2023/05/23 14:20:36;;;;;;;10.95;9.75;;;23.20;94.10;;;;;;20904341;28;20440;-61
2023/05/23 14:30:37;;;;;;;16.60;14.75;;;24.70;90.20;;;;;;20900392;28;20040;-50
2023/05/23 14:40:39;;;;;;;13.70;12.30;;;25.00;89.60;;;;;;20912316;28;20049;-61
2023/05/23 14:50:41;;;;;;;11.18;7.45;;;24.50;89.70;;;;;;20918154;28;20036;-61
2023/05/23 15:00:45;;;;;;;8.85;7.03;;;25.10;79.20;;;;;;20921928;28;20060;-60
2023/05/23 15:10:47;;;;;;;17.75;13.55;;;23.70;90.00;;;;;;20909052;28;20029;-59
2023/05/23 15:20:49;;;;;;;14.90;12.38;;;22.40;90.80;;;;;;20919840;28;20032;-59
2023/05/23 15:30:50;;;;;;;14.50;12.25;;;21.80;94.40;;;;;;20916111;28;20033;-59
2023/05/23 15:40:54;;;;;;;13.40;12.00;;;21.50;93.40;;;;;;20921237;28;20052;-50
2023/05/23 15:50:55;;;;;;;13.65;11.20;;;21.20;93.60;;;;;;20919573;28;20037;-59
2023/05/23 16:00:57;;;;;;;17.67;11.82;;;20.90;94.70;;;;;;20916515;28;20033;-58
2023/05/23 16:10:59;;;;;;;15.70;11.13;;;20.80;94.60;;;;;;20908964;28;20111;-53
2023/05/23 16:21:00;;;;;;;16.30;13.55;;;20.70;95.10;;;;;;20914793;28;20028;-59
2023/05/23 16:31:02;;;;;;;13.85;11.80;;;20.40;94.10;;;;;;20914308;28;20476;-59
2023/05/23 16:41:04;;;;;;;17.88;12.95;;;19.80;95.40;;;;;;20908233;28;20075;-55
2023/05/23 16:51:06;;;;;;;14.73;11.85;;;19.40;96.90;;;;;;20903145;28;20025;-59
2023/05/23 17:01:08;;;;;;;15.98;11.45;;;18.80;98.50;;;;;;20911750;28;20540;-51
2023/05/23 17:11:10;;;;;;;12.70;10.43;;;18.30;99.90;;;;;;20907747;28;20379;-50
2023/05/23 17:21:11;;;;;;;8.85;7.88;;;17.80;99.90;;;;;;20910676;28;20435;-58
2023/05/23 17:31:13;;;;;;;9.57;7.43;;;17.40;99.90;;;;;;20912356;28;20536;-57
2023/05/23 17:41:15;;;;;;;8.43;6.82;;;16.90;99.90;;;;;;20904671;28;20049;-58
2023/05/23 17:51:16;;;;;;;10.85;6.70;;;16.60;99.90;;;;;;20909074;28;20041;-58
2023/05/23 18:01:18;;;;;;;8.45;6.18;;;16.20;99.90;;;;;;20909845;28;20037;-60
2023/05/23 18:11:20;;;;;;;8.40;6.43;;;15.70;99.90;;;;;;20914038;28;20029;-57
2023/05/23 18:21:22;;;;;;;7.88;5.60;;;15.20;99.90;;;;;;20928369;28;20037;-57
2023/05/23 18:31:24;;;;;;;8.25;5.22;;;14.70;99.90;;;;;;20923738;28;20086;-57
2023/05/23 18:41:26;;;;;;;6.53;5.82;;;14.30;99.90;;;;;;20923210;28;20064;-57
2023/05/23 18:51:28;;;;;;;6.82;5.78;;;13.80;99.90;;;;;;20918202;28;20095;-57
2023/05/23 19:01:29;;;;;;;7.13;5.88;;;13.10;99.90;;;;;;20912523;28;20040;-57
2023/05/23 19:11:31;;;;;;;7.38;5.78;;;12.80;99.90;;;;;;20924014;28;20478;-52
2023/05/23 19:21:33;;;;;;;8.32;5.97;;;12.40;99.90;;;;;;20911012;28;20036;-57
2023/05/23 19:31:36;;;;;;;9.18;7.57;;;12.20;99.90;;;;;;20917384;28;20060;-56
2023/05/23 19:41:40;;;;;;;10.98;8.20;;;12.00;99.90;;;;;;20915357;28;20040;-49
2023/05/23 19:51:42;;;;;;;15.63;8.50;;;11.80;99.90;;;;;;20909256;28;20033;-54
2023/05/23 20:01:44;;;;;;;11.60;7.82;;;11.80;99.90;;;;;;20917264;28;20029;-57
2023/05/23 20:11:46;;;;;;;12.90;9.13;;;11.70;99.90;;;;;;20915657;28;20033;-57
2023/05/23 20:21:48;;;;;;;14.73;10.68;;;11.70;99.90;;;;;;20913743;28;20473;-56
2023/05/23 20:31:50;;;;;;;14.85;11.27;;;11.70;99.90;;;;;;20906928;28;20094;-57
2023/05/23 20:41:52;;;;;;;14.32;10.70;;;11.80;99.90;;;;;;20912884;28;20040;-51
2023/05/23 20:51:54;;;;;;;15.82;12.15;;;11.90;99.90;;;;;;20912332;28;20557;-48
2023/05/23 21:01:56;;;;;;;17.90;12.13;;;11.80;99.90;;;;;;20907607;28;20110;-57
2023/05/23 21:11:58;;;;;;;17.17;11.70;;;11.80;99.90;;;;;;20912564;28;20044;-57
2023/05/23 21:21:59;;;;;;;16.33;12.00;;;11.60;99.90;;;;;;20909357;28;20058;-51
2023/05/23 21:32:01;;;;;;;23.45;13.70;;;11.60;99.90;;;;;;20901793;28;20072;-56
2023/05/23 21:42:03;;;;;;;17.40;13.85;;;11.50;99.90;;;;;;20901741;28;20041;-53
2023/05/23 21:52:05;;;;;;;19.90;14.00;;;11.50;99.90;;;;;;20905086;28;20102;-57
2023/05/23 22:02:07;;;;;;;19.33;13.90;;;11.60;99.90;;;;;;20907507;28;20032;-57
2023/05/23 22:12:09;;;;;;;20.80;12.85;;;11.50;99.90;;;;;;20905471;28;20108;-49
2023/05/23 22:22:11;;;;;;;16.73;11.75;;;11.50;99.90;;;;;;20904283;28;20390;-52
2023/05/23 22:32:12;;;;;;;16.48;12.73;;;11.40;99.90;;;;;;20907194;28;20040;-53
2023/05/23 22:42:14;;;;;;;18.85;13.02;;;11.40;99.90;;;;;;20908055;28;20036;-51
2023/05/23 22:52:16;;;;;;;21.77;15.63;;;11.30;99.90;;;;;;20901994;28;20071;-52
2023/05/23 23:02:17;;;;;;;25.17;16.20;;;11.30;99.90;;;;;;20907633;28;20025;-52
2023/05/23 23:12:19;;;;;;;19.70;16.27;;;11.50;99.90;;;;;;20916962;28;20033;-52
2023/05/23 23:22:21;;;;;;;22.13;16.20;;;11.60;99.90;;;;;;20915941;28;20435;-48
2023/05/23 23:32:23;;;;;;;24.15;17.52;;;11.60;99.90;;;;;;20910897;28;20439;-53
2023/05/23 23:42:25;;;;;;;19.52;13.35;;;11.50;99.90;;;;;;20922776;28;20037;-47
2023/05/23 23:52:26;;;;;;;18.42;13.80;;;11.30;99.90;;;;;;20914858;28;20037;-48
